EJU4LK EBBR-EDDS
Flight info
| Callsign | EJU4LK |
|---|---|
| Flight time | 0h 52m |
| Altitude | 23000 |
| Route | SOPOK Y863 ROPUV L607 UBIDU L984 RUDUS Z738 UBENO N850 KRH T128 BADSO BADSO2A |
| Aircraft | A320/M-SDE3FGHIRWY/LB1 |
Departure
| Time | 2026-05-05 15:53 |
|---|---|
| Airport | Brussels Airport (EBBR) |
Arrival
| Time | 2026-05-05 16:46 |
|---|---|
| Airport | Stuttgart Airport (EDDS) |
| Time | Latitude | Longitude | Altitude | Speed | Heading |
|---|---|---|---|---|---|
| 2026-05-05 15:28 | 50.90196 | 4.47819 | 121 ft | 0 kts | 155° |
| 2026-05-05 15:40 | 50.90197 | 4.47818 | 121 ft | 0 kts | 155° |
| 2026-05-05 15:40 | 50.90199 | 4.47817 | 121 ft | 0 kts | 155° |
| 2026-05-05 15:41 | 50.90201 | 4.47815 | 121 ft | 0 kts | 156° |
| 2026-05-05 15:41 | 50.90206 | 4.47811 | 121 ft | 1 kts | 156° |
| 2026-05-05 15:41 | 50.90212 | 4.47807 | 116 ft | 1 kts | 156° |
| 2026-05-05 15:41 | 50.90218 | 4.47803 | 116 ft | 1 kts | 156° |
| 2026-05-05 15:42 | 50.90223 | 4.47799 | 117 ft | 1 kts | 156° |
| 2026-05-05 15:42 | 50.90229 | 4.47795 | 117 ft | 2 kts | 156° |
| 2026-05-05 15:42 | 50.90244 | 4.47785 | 116 ft | 2 kts | 155° |
| 2026-05-05 15:42 | 50.90255 | 4.47768 | 118 ft | 2 kts | 100° |
| 2026-05-05 15:43 | 50.90257 | 4.47750 | 118 ft | 0 kts | 70° |
| 2026-05-05 15:43 | 50.90258 | 4.47755 | 118 ft | 2 kts | 70° |
| 2026-05-05 15:43 | 50.90271 | 4.47819 | 119 ft | 2 kts | 71° |
| 2026-05-05 15:43 | 50.90272 | 4.47819 | 119 ft | 0 kts | 71° |
| 2026-05-05 15:45 | 50.90272 | 4.47822 | 119 ft | 2 kts | 70° |
| 2026-05-05 15:45 | 50.90289 | 4.47863 | 116 ft | 6 kts | 54° |
| 2026-05-05 15:45 | 50.90319 | 4.47943 | 118 ft | 10 kts | 64° |
| 2026-05-05 15:46 | 50.90356 | 4.48066 | 119 ft | 14 kts | 68° |
| 2026-05-05 15:46 | 50.90365 | 4.48125 | 121 ft | 11 kts | 61° |
| 2026-05-05 15:46 | 50.90418 | 4.48297 | 119 ft | 20 kts | 66° |
| 2026-05-05 15:46 | 50.90481 | 4.48509 | 120 ft | 21 kts | 64° |
| 2026-05-05 15:47 | 50.90503 | 4.48571 | 118 ft | 12 kts | 52° |
| 2026-05-05 15:47 | 50.90561 | 4.48606 | 120 ft | 14 kts | 11° |
| 2026-05-05 15:47 | 50.90640 | 4.48785 | 118 ft | 18 kts | 64° |
| 2026-05-05 15:47 | 50.90695 | 4.48979 | 118 ft | 21 kts | 66° |
| 2026-05-05 15:48 | 50.90758 | 4.49195 | 119 ft | 23 kts | 65° |
| 2026-05-05 15:48 | 50.90828 | 4.49434 | 121 ft | 24 kts | 64° |
| 2026-05-05 15:48 | 50.90852 | 4.49605 | 122 ft | 14 kts | 117° |
| 2026-05-05 15:48 | 50.90774 | 4.49715 | 124 ft | 17 kts | 168° |
| 2026-05-05 15:49 | 50.90655 | 4.49671 | 120 ft | 19 kts | 194° |
| 2026-05-05 15:49 | 50.90514 | 4.49614 | 120 ft | 22 kts | 194° |
| 2026-05-05 15:49 | 50.90353 | 4.49550 | 123 ft | 25 kts | 195° |
| 2026-05-05 15:49 | 50.90175 | 4.49476 | 129 ft | 27 kts | 194° |
| 2026-05-05 15:50 | 50.89993 | 4.49403 | 132 ft | 27 kts | 194° |
| 2026-05-05 15:50 | 50.89839 | 4.49340 | 140 ft | 21 kts | 194° |
| 2026-05-05 15:50 | 50.89699 | 4.49283 | 149 ft | 20 kts | 194° |
| 2026-05-05 15:50 | 50.89604 | 4.49222 | 155 ft | 11 kts | 217° |
| 2026-05-05 15:51 | 50.89522 | 4.49170 | 159 ft | 17 kts | 194° |
| 2026-05-05 15:51 | 50.89412 | 4.49123 | 164 ft | 15 kts | 196° |
| 2026-05-05 15:51 | 50.89321 | 4.49086 | 167 ft | 13 kts | 194° |
| 2026-05-05 15:51 | 50.89247 | 4.49056 | 172 ft | 7 kts | 194° |
| 2026-05-05 15:52 | 50.89195 | 4.49034 | 175 ft | 9 kts | 195° |
| 2026-05-05 15:52 | 50.89137 | 4.49065 | 177 ft | 8 kts | 92° |
| 2026-05-05 15:52 | 50.89161 | 4.49158 | 176 ft | 15 kts | 69° |
| 2026-05-05 15:52 | 50.89271 | 4.49620 | 177 ft | 83 kts | 69° |
| 2026-05-05 15:53 | 50.89545 | 4.50808 | 175 ft | 143 kts | 70° |
| 2026-05-05 15:53 | 50.89808 | 4.51961 | 419 ft | 158 kts | 71° |
| 2026-05-05 15:53 | 50.90172 | 4.53580 | 1310 ft | 155 kts | 63° |
| 2026-05-05 15:53 | 50.90672 | 4.55182 | 1909 ft | 169 kts | 60° |
| 2026-05-05 15:54 | 50.91253 | 4.56905 | 2280 ft | 192 kts | 59° |
| 2026-05-05 15:54 | 50.91939 | 4.58910 | 2762 ft | 217 kts | 59° |
| 2026-05-05 15:54 | 50.92692 | 4.61135 | 3311 ft | 240 kts | 60° |
| 2026-05-05 15:54 | 50.93488 | 4.63532 | 4198 ft | 250 kts | 62° |
| 2026-05-05 15:55 | 50.94128 | 4.66147 | 5148 ft | 257 kts | 70° |
| 2026-05-05 15:55 | 50.94670 | 4.68844 | 6112 ft | 263 kts | 72° |
| 2026-05-05 15:55 | 50.95196 | 4.71645 | 7009 ft | 268 kts | 73° |
| 2026-05-05 15:55 | 50.95484 | 4.74631 | 7877 ft | 275 kts | 91° |
| 2026-05-05 15:56 | 50.95082 | 4.77667 | 8806 ft | 281 kts | 111° |
| 2026-05-05 15:56 | 50.94041 | 4.80306 | 9736 ft | 286 kts | 131° |
| 2026-05-05 15:56 | 50.92526 | 4.82444 | 10340 ft | 303 kts | 139° |
| 2026-05-05 15:56 | 50.90850 | 4.84649 | 10863 ft | 319 kts | 140° |
| 2026-05-05 15:57 | 50.89006 | 4.86641 | 11658 ft | 325 kts | 151° |
| 2026-05-05 15:57 | 50.86888 | 4.87961 | 12516 ft | 330 kts | 163° |
| 2026-05-05 15:57 | 50.84604 | 4.88542 | 13328 ft | 335 kts | 173° |
| 2026-05-05 15:57 | 50.82272 | 4.88895 | 14104 ft | 338 kts | 173° |
| 2026-05-05 15:58 | 50.79918 | 4.89258 | 14838 ft | 341 kts | 173° |
| 2026-05-05 15:58 | 50.77546 | 4.89628 | 15617 ft | 344 kts | 173° |
| 2026-05-05 15:58 | 50.75156 | 4.90004 | 16479 ft | 345 kts | 175° |
| 2026-05-05 15:58 | 50.72757 | 4.90379 | 17346 ft | 348 kts | 174° |
| 2026-05-05 15:59 | 50.70364 | 4.91036 | 18160 ft | 351 kts | 164° |
| 2026-05-05 15:59 | 50.68129 | 4.92627 | 18882 ft | 355 kts | 149° |
| 2026-05-05 15:59 | 50.66228 | 4.95148 | 19512 ft | 361 kts | 133° |
| 2026-05-05 15:59 | 50.64835 | 4.98473 | 20101 ft | 368 kts | 117° |
| 2026-05-05 16:00 | 50.63972 | 5.02301 | 20680 ft | 373 kts | 110° |
| 2026-05-05 16:00 | 50.63174 | 5.06247 | 21268 ft | 376 kts | 110° |
| 2026-05-05 16:00 | 50.62366 | 5.10204 | 21849 ft | 379 kts | 110° |
| 2026-05-05 16:00 | 50.61550 | 5.14175 | 22397 ft | 382 kts | 110° |
| 2026-05-05 16:01 | 50.60721 | 5.18174 | 22786 ft | 386 kts | 110° |
| 2026-05-05 16:01 | 50.59890 | 5.22169 | 22851 ft | 378 kts | 110° |
| 2026-05-05 16:01 | 50.59088 | 5.26018 | 22856 ft | 363 kts | 112° |
| 2026-05-05 16:01 | 50.57883 | 5.29413 | 22858 ft | 352 kts | 135° |
| 2026-05-05 16:02 | 50.56099 | 5.32020 | 22856 ft | 350 kts | 140° |
| 2026-05-05 16:02 | 50.54285 | 5.34587 | 22854 ft | 350 kts | 140° |
| 2026-05-05 16:02 | 50.52494 | 5.37183 | 22854 ft | 350 kts | 139° |
| 2026-05-05 16:02 | 50.50740 | 5.39772 | 22846 ft | 350 kts | 139° |
| 2026-05-05 16:03 | 50.48979 | 5.42395 | 22846 ft | 349 kts | 139° |
| 2026-05-05 16:03 | 50.47218 | 5.45028 | 22846 ft | 349 kts | 139° |
| 2026-05-05 16:03 | 50.45462 | 5.47651 | 22846 ft | 349 kts | 139° |
| 2026-05-05 16:03 | 50.43702 | 5.50275 | 22846 ft | 349 kts | 139° |
| 2026-05-05 16:04 | 50.41939 | 5.52888 | 22845 ft | 349 kts | 139° |
| 2026-05-05 16:04 | 50.40176 | 5.55494 | 22829 ft | 349 kts | 139° |
| 2026-05-05 16:04 | 50.38408 | 5.58107 | 22828 ft | 349 kts | 139° |
| 2026-05-05 16:04 | 50.36643 | 5.60713 | 22827 ft | 349 kts | 139° |
| 2026-05-05 16:05 | 50.34873 | 5.63322 | 22828 ft | 349 kts | 139° |
| 2026-05-05 16:05 | 50.33106 | 5.65919 | 22829 ft | 349 kts | 139° |
| 2026-05-05 16:05 | 50.31326 | 5.68526 | 22830 ft | 349 kts | 139° |
| 2026-05-05 16:05 | 50.29557 | 5.71118 | 22830 ft | 349 kts | 139° |
| 2026-05-05 16:06 | 50.27787 | 5.73708 | 22825 ft | 349 kts | 138° |
| 2026-05-05 16:06 | 50.26173 | 5.76570 | 22830 ft | 351 kts | 127° |
| 2026-05-05 16:06 | 50.24977 | 5.79898 | 22834 ft | 354 kts | 115° |
| 2026-05-05 16:06 | 50.24239 | 5.83579 | 22834 ft | 356 kts | 107° |
| 2026-05-05 16:07 | 50.23625 | 5.87327 | 22830 ft | 356 kts | 107° |
| 2026-05-05 16:07 | 50.22999 | 5.91068 | 22827 ft | 356 kts | 108° |
| 2026-05-05 16:07 | 50.22362 | 5.94808 | 22825 ft | 356 kts | 108° |
| 2026-05-05 16:07 | 50.21723 | 5.98539 | 22812 ft | 356 kts | 107° |
| 2026-05-05 16:08 | 50.21084 | 6.02274 | 22806 ft | 357 kts | 107° |
| 2026-05-05 16:08 | 50.20444 | 6.06026 | 22802 ft | 358 kts | 107° |
| 2026-05-05 16:08 | 50.19803 | 6.09775 | 22813 ft | 358 kts | 107° |
| 2026-05-05 16:08 | 50.19158 | 6.13538 | 22813 ft | 359 kts | 107° |
| 2026-05-05 16:09 | 50.18558 | 6.17322 | 22815 ft | 360 kts | 102° |
| 2026-05-05 16:09 | 50.18358 | 6.21224 | 22816 ft | 363 kts | 90° |
| 2026-05-05 16:09 | 50.18569 | 6.25159 | 22805 ft | 364 kts | 86° |
| 2026-05-05 16:09 | 50.18825 | 6.29097 | 22809 ft | 365 kts | 86° |
| 2026-05-05 16:10 | 50.19074 | 6.33042 | 22810 ft | 365 kts | 86° |
| 2026-05-05 16:10 | 50.19321 | 6.36988 | 22814 ft | 365 kts | 86° |
| 2026-05-05 16:10 | 50.19567 | 6.40933 | 22817 ft | 366 kts | 86° |
| 2026-05-05 16:10 | 50.19810 | 6.44874 | 22802 ft | 364 kts | 86° |
| 2026-05-05 16:11 | 50.20048 | 6.48805 | 22811 ft | 363 kts | 86° |
| 2026-05-05 16:11 | 50.20745 | 6.60541 | 22830 ft | 361 kts | 86° |
| 2026-05-05 16:12 | 50.20978 | 6.64442 | 22834 ft | 361 kts | 86° |
| 2026-05-05 16:12 | 50.21451 | 6.72242 | 22845 ft | 361 kts | 86° |
| 2026-05-05 16:13 | 50.22133 | 6.83933 | 22844 ft | 359 kts | 89° |
| 2026-05-05 16:13 | 50.22050 | 6.87797 | 22846 ft | 356 kts | 97° |
| 2026-05-05 16:13 | 50.21845 | 6.91661 | 22826 ft | 356 kts | 97° |
| 2026-05-05 16:14 | 50.21439 | 6.99346 | 22823 ft | 355 kts | 96° |
| 2026-05-05 16:14 | 50.21038 | 7.07018 | 22823 ft | 355 kts | 96° |
| 2026-05-05 16:15 | 50.20629 | 7.14714 | 22824 ft | 355 kts | 96° |
| 2026-05-05 16:15 | 50.20213 | 7.22380 | 22824 ft | 355 kts | 97° |
| 2026-05-05 16:16 | 50.19790 | 7.30071 | 22824 ft | 355 kts | 97° |
| 2026-05-05 16:16 | 50.18668 | 7.37507 | 22814 ft | 352 kts | 110° |
| 2026-05-05 16:17 | 50.17136 | 7.44732 | 22813 ft | 353 kts | 110° |
| 2026-05-05 16:17 | 50.16366 | 7.48374 | 22813 ft | 353 kts | 110° |
| 2026-05-05 16:18 | 50.14823 | 7.55663 | 22810 ft | 354 kts | 110° |
| 2026-05-05 16:18 | 50.14048 | 7.59317 | 22812 ft | 354 kts | 110° |
| 2026-05-05 16:18 | 50.12500 | 7.66611 | 22813 ft | 354 kts | 110° |
| 2026-05-05 16:19 | 50.11724 | 7.70244 | 22817 ft | 354 kts | 110° |
| 2026-05-05 16:19 | 50.10940 | 7.73895 | 22821 ft | 354 kts | 110° |
| 2026-05-05 16:19 | 50.09373 | 7.81165 | 22817 ft | 354 kts | 111° |
| 2026-05-05 16:20 | 50.07806 | 7.88421 | 22841 ft | 353 kts | 111° |
| 2026-05-05 16:20 | 50.06551 | 7.95824 | 22846 ft | 354 kts | 106° |
| 2026-05-05 16:21 | 50.05435 | 8.03285 | 22850 ft | 354 kts | 106° |
| 2026-05-05 16:22 | 50.02247 | 8.13392 | 22857 ft | 348 kts | 127° |
| 2026-05-05 16:22 | 49.99469 | 8.19546 | 22859 ft | 348 kts | 127° |
| 2026-05-05 16:23 | 49.96698 | 8.25710 | 22849 ft | 348 kts | 127° |
| 2026-05-05 16:23 | 49.95311 | 8.28791 | 22873 ft | 348 kts | 127° |
| 2026-05-05 16:23 | 49.92533 | 8.34934 | 22871 ft | 348 kts | 127° |
| 2026-05-05 16:24 | 49.91140 | 8.38003 | 22847 ft | 347 kts | 127° |
| 2026-05-05 16:24 | 49.89763 | 8.41027 | 22832 ft | 347 kts | 127° |
| 2026-05-05 16:24 | 49.86967 | 8.47153 | 22824 ft | 348 kts | 129° |
| 2026-05-05 16:25 | 49.85378 | 8.49971 | 22820 ft | 347 kts | 135° |
| 2026-05-05 16:25 | 49.82585 | 8.54532 | 22821 ft | 348 kts | 135° |
| 2026-05-05 16:25 | 49.80918 | 8.57254 | 22824 ft | 349 kts | 135° |
| 2026-05-05 16:26 | 49.77597 | 8.62680 | 22830 ft | 349 kts | 135° |
| 2026-05-05 16:26 | 49.73762 | 8.67135 | 22832 ft | 345 kts | 158° |
| 2026-05-05 16:27 | 49.71467 | 8.68190 | 22834 ft | 344 kts | 171° |
| 2026-05-05 16:27 | 49.69076 | 8.68379 | 22834 ft | 344 kts | 184° |
| 2026-05-05 16:27 | 49.66665 | 8.68048 | 22834 ft | 344 kts | 185° |
| 2026-05-05 16:27 | 49.64305 | 8.67723 | 22843 ft | 345 kts | 185° |
| 2026-05-05 16:28 | 49.61915 | 8.67398 | 22836 ft | 345 kts | 185° |
| 2026-05-05 16:28 | 49.59526 | 8.67078 | 22834 ft | 345 kts | 185° |
| 2026-05-05 16:28 | 49.57132 | 8.66763 | 22833 ft | 346 kts | 185° |
| 2026-05-05 16:28 | 49.54732 | 8.66449 | 22833 ft | 346 kts | 185° |
| 2026-05-05 16:29 | 49.52332 | 8.66132 | 22834 ft | 346 kts | 185° |
| 2026-05-05 16:29 | 49.49935 | 8.65814 | 22835 ft | 346 kts | 185° |
| 2026-05-05 16:29 | 49.47537 | 8.65497 | 22836 ft | 346 kts | 185° |
| 2026-05-05 16:29 | 49.45129 | 8.65180 | 22836 ft | 346 kts | 185° |
| 2026-05-05 16:30 | 49.42732 | 8.64863 | 22833 ft | 346 kts | 185° |
| 2026-05-05 16:30 | 49.40352 | 8.64549 | 27632 ft | 340 kts | 184° |
| 2026-05-05 16:30 | 49.37985 | 8.64640 | 26931 ft | 343 kts | 166° |
| 2026-05-05 16:30 | 49.35795 | 8.66079 | 26326 ft | 346 kts | 145° |
| 2026-05-05 16:31 | 49.34026 | 8.68577 | 25785 ft | 348 kts | 135° |
| 2026-05-05 16:31 | 49.32387 | 8.71312 | 25231 ft | 346 kts | 134° |
| 2026-05-05 16:31 | 49.30780 | 8.74040 | 24463 ft | 344 kts | 134° |
| 2026-05-05 16:31 | 49.29186 | 8.76765 | 23733 ft | 342 kts | 134° |
| 2026-05-05 16:32 | 49.27608 | 8.79477 | 22949 ft | 340 kts | 134° |
| 2026-05-05 16:32 | 49.26039 | 8.82177 | 22190 ft | 338 kts | 134° |
| 2026-05-05 16:32 | 49.24462 | 8.84894 | 21470 ft | 335 kts | 134° |
| 2026-05-05 16:32 | 49.22925 | 8.87538 | 20730 ft | 332 kts | 134° |
| 2026-05-05 16:33 | 49.21402 | 8.90166 | 20023 ft | 328 kts | 134° |
| 2026-05-05 16:33 | 49.19910 | 8.92769 | 19386 ft | 323 kts | 134° |
| 2026-05-05 16:33 | 49.18437 | 8.95350 | 18734 ft | 320 kts | 134° |
| 2026-05-05 16:33 | 49.16981 | 8.97910 | 18094 ft | 319 kts | 134° |
| 2026-05-05 16:34 | 49.15531 | 9.00474 | 17510 ft | 318 kts | 134° |
| 2026-05-05 16:34 | 49.14089 | 9.03028 | 16961 ft | 316 kts | 134° |
| 2026-05-05 16:34 | 49.12656 | 9.05560 | 16459 ft | 314 kts | 135° |
| 2026-05-05 16:34 | 49.10989 | 9.07619 | 16012 ft | 306 kts | 157° |
| 2026-05-05 16:35 | 49.09019 | 9.08792 | 15688 ft | 303 kts | 163° |
| 2026-05-05 16:35 | 49.07024 | 9.09818 | 15363 ft | 302 kts | 164° |
| 2026-05-05 16:35 | 49.05033 | 9.10833 | 15031 ft | 301 kts | 164° |
| 2026-05-05 16:35 | 49.03052 | 9.11843 | 14690 ft | 299 kts | 164° |
| 2026-05-05 16:36 | 49.01079 | 9.12848 | 14375 ft | 298 kts | 164° |
| 2026-05-05 16:36 | 48.99040 | 9.13890 | 13995 ft | 295 kts | 164° |
| 2026-05-05 16:36 | 48.97257 | 9.15133 | 13381 ft | 297 kts | 146° |
| 2026-05-05 16:36 | 48.95884 | 9.17476 | 12720 ft | 301 kts | 121° |
| 2026-05-05 16:37 | 48.95036 | 9.20398 | 12071 ft | 302 kts | 115° |
| 2026-05-05 16:37 | 48.94277 | 9.23417 | 11413 ft | 300 kts | 114° |
| 2026-05-05 16:37 | 48.93547 | 9.26380 | 10799 ft | 298 kts | 114° |
| 2026-05-05 16:37 | 48.92821 | 9.29360 | 10187 ft | 305 kts | 114° |
| 2026-05-05 16:38 | 48.92080 | 9.32415 | 9566 ft | 310 kts | 114° |
| 2026-05-05 16:38 | 48.91343 | 9.35468 | 8887 ft | 304 kts | 114° |
| 2026-05-05 16:38 | 48.90619 | 9.38449 | 8257 ft | 298 kts | 114° |
| 2026-05-05 16:38 | 48.89904 | 9.41382 | 7621 ft | 293 kts | 114° |
| 2026-05-05 16:39 | 48.89194 | 9.44294 | 6993 ft | 288 kts | 114° |
| 2026-05-05 16:39 | 48.88505 | 9.47081 | 6387 ft | 283 kts | 116° |
| 2026-05-05 16:39 | 48.87438 | 9.49499 | 5762 ft | 271 kts | 142° |
| 2026-05-05 16:39 | 48.85851 | 9.50879 | 5164 ft | 261 kts | 161° |
| 2026-05-05 16:40 | 48.84148 | 9.51808 | 4547 ft | 259 kts | 163° |
| 2026-05-05 16:40 | 48.82449 | 9.52673 | 4087 ft | 252 kts | 164° |
| 2026-05-05 16:40 | 48.80833 | 9.53495 | 4008 ft | 241 kts | 164° |
| 2026-05-05 16:40 | 48.79244 | 9.54316 | 4008 ft | 240 kts | 165° |
| 2026-05-05 16:41 | 48.77612 | 9.54655 | 4010 ft | 235 kts | 187° |
| 2026-05-05 16:41 | 48.76121 | 9.53983 | 4002 ft | 215 kts | 211° |
| 2026-05-05 16:41 | 48.75023 | 9.52610 | 4009 ft | 202 kts | 232° |
| 2026-05-05 16:41 | 48.74352 | 9.50761 | 4009 ft | 202 kts | 252° |
| 2026-05-05 16:42 | 48.73965 | 9.48712 | 4010 ft | 202 kts | 253° |
| 2026-05-05 16:42 | 48.73585 | 9.46658 | 4008 ft | 202 kts | 253° |
| 2026-05-05 16:42 | 48.73212 | 9.44656 | 3887 ft | 194 kts | 253° |
| 2026-05-05 16:42 | 48.72846 | 9.42697 | 3665 ft | 194 kts | 254° |
| 2026-05-05 16:43 | 48.72476 | 9.40724 | 3422 ft | 194 kts | 253° |
| 2026-05-05 16:43 | 48.72098 | 9.38710 | 3174 ft | 190 kts | 254° |
| 2026-05-05 16:43 | 48.71758 | 9.36895 | 2924 ft | 181 kts | 253° |
| 2026-05-05 16:43 | 48.71420 | 9.35102 | 2694 ft | 172 kts | 254° |
| 2026-05-05 16:44 | 48.71111 | 9.33455 | 2458 ft | 154 kts | 254° |
| 2026-05-05 16:44 | 48.70825 | 9.31952 | 2239 ft | 141 kts | 254° |
| 2026-05-05 16:44 | 48.70544 | 9.30557 | 2057 ft | 138 kts | 255° |
| 2026-05-05 16:44 | 48.70283 | 9.29150 | 1890 ft | 140 kts | 256° |
| 2026-05-05 16:45 | 48.70024 | 9.27718 | 1752 ft | 143 kts | 256° |
| 2026-05-05 16:45 | 48.69755 | 9.26258 | 1532 ft | 144 kts | 253° |
| 2026-05-05 16:45 | 48.69482 | 9.24813 | 1381 ft | 142 kts | 255° |
| 2026-05-05 16:45 | 48.69226 | 9.23425 | 1286 ft | 123 kts | 254° |
| 2026-05-05 16:46 | 48.69031 | 9.22418 | 1288 ft | 77 kts | 255° |
| 2026-05-05 16:46 | 48.68939 | 9.21878 | 1285 ft | 34 kts | 266° |
| 2026-05-05 16:46 | 48.68968 | 9.21590 | 1286 ft | 14 kts | 284° |
| 2026-05-05 16:46 | 48.68994 | 9.21448 | 1288 ft | 13 kts | 283° |
| 2026-05-05 16:47 | 48.68996 | 9.21319 | 1285 ft | 12 kts | 256° |
| 2026-05-05 16:47 | 48.68976 | 9.21209 | 1290 ft | 10 kts | 257° |
| 2026-05-05 16:47 | 48.68951 | 9.21078 | 1285 ft | 18 kts | 254° |
| 2026-05-05 16:47 | 48.68921 | 9.20911 | 1285 ft | 7 kts | 255° |
| 2026-05-05 16:48 | 48.68919 | 9.20903 | 1285 ft | 2 kts | 255° |
| 2026-05-05 16:48 | 48.68916 | 9.20884 | 1290 ft | 0 kts | 255° |
| 2026-05-05 16:48 | 48.68915 | 9.20883 | 1290 ft | 1 kts | 255° |
| 2026-05-05 16:49 | 48.68899 | 9.20790 | 1288 ft | 12 kts | 259° |
| 2026-05-05 16:49 | 48.68922 | 9.20691 | 1288 ft | 10 kts | 314° |
| 2026-05-05 16:49 | 48.68974 | 9.20609 | 1290 ft | 12 kts | 316° |
| 2026-05-05 16:49 | 48.69034 | 9.20518 | 1289 ft | 13 kts | 313° |
| 2026-05-05 16:50 | 48.69055 | 9.20396 | 1287 ft | 12 kts | 254° |
| 2026-05-05 16:50 | 48.69031 | 9.20279 | 1290 ft | 11 kts | 253° |
| 2026-05-05 16:50 | 48.69014 | 9.20198 | 1289 ft | 3 kts | 239° |
| 2026-05-05 16:50 | 48.68999 | 9.20200 | 1288 ft | 4 kts | 168° |
| 2026-05-05 16:51 | 48.68978 | 9.20208 | 1286 ft | 5 kts | 166° |
| 2026-05-05 16:51 | 48.68947 | 9.20221 | 1287 ft | 3 kts | 164° |
| 2026-05-05 16:51 | 48.68942 | 9.20223 | 1289 ft | 0 kts | 164° |